createdAt,value
2019-03-31T00:01:08.288Z,54.33
2019-03-31T00:03:34.842Z,56.40
2019-03-31T00:06:03.423Z,55.20
2019-03-31T00:08:32.229Z,58.23
2019-03-31T00:11:00.956Z,57.70
2019-03-31T00:13:29.440Z,58.67
2019-03-31T00:16:01.083Z,59.60
2019-03-31T00:18:29.597Z,59.47
2019-03-31T00:21:00.574Z,56.63
2019-03-31T00:23:29.558Z,55.28
2019-03-31T00:25:58.328Z,57.13
2019-03-31T00:28:26.804Z,56.73
2019-03-31T00:30:57.071Z,58.50
2019-03-31T00:33:25.586Z,56.03
2019-03-31T00:35:56.895Z,55.43
2019-03-31T00:38:27.782Z,56.97
2019-03-31T00:40:58.816Z,58.50
2019-03-31T00:43:29.035Z,59.10
2019-03-31T00:45:59.036Z,55.33
2019-03-31T00:48:30.154Z,58.38
2019-03-31T00:51:00.232Z,60.17
2019-03-31T00:53:31.376Z,58.57
2019-03-31T00:56:03.558Z,58.27
2019-03-31T00:58:32.035Z,58.70
2019-03-31T01:01:05.478Z,60.13
2019-03-31T01:03:35.908Z,56.50
2019-03-31T01:06:05.930Z,58.43
2019-03-31T01:08:40.707Z,59.23
2019-03-31T01:11:14.027Z,56.97
2019-03-31T01:13:42.861Z,56.87
2019-03-31T01:16:13.798Z,60.25
2019-03-31T01:18:50.452Z,60.30
2019-03-31T01:21:19.190Z,59.50
2019-03-31T01:23:51.048Z,60.15
2019-03-31T01:26:22.310Z,60.20
2019-03-31T01:28:51.674Z,62.03
2019-03-31T01:31:28.205Z,61.23
2019-03-31T01:33:59.946Z,60.03
2019-03-31T01:36:28.413Z,60.60
2019-03-31T01:38:57.846Z,60.97
2019-03-31T01:41:26.694Z,60.20
2019-03-31T01:43:58.216Z,59.70
2019-03-31T01:46:28.064Z,59.97
2019-03-31T01:48:56.631Z,60.77
2019-03-31T01:51:27.587Z,60.20
2019-03-31T01:53:57.522Z,61.97
2019-03-31T01:56:26.936Z,59.33
2019-03-31T01:58:55.563Z,61.27
2019-03-31T02:01:26.730Z,59.13
2019-03-31T02:03:56.211Z,57.63
2019-03-31T02:06:24.806Z,58.68
2019-03-31T02:08:53.291Z,58.70
2019-03-31T02:11:22.257Z,60.70
2019-03-31T02:13:53.234Z,58.50
2019-03-31T02:16:21.891Z,57.53
2019-03-31T02:18:50.388Z,57.40
2019-03-31T02:21:18.941Z,58.10
2019-03-31T02:23:47.575Z,58.15
2019-03-31T02:26:16.555Z,58.30
2019-03-31T02:28:45.027Z,59.40
2019-03-31T02:31:13.783Z,59.00
2019-03-31T02:33:42.825Z,56.27
2019-03-31T02:36:17.231Z,60.20
2019-03-31T02:38:45.829Z,58.57
2019-03-31T02:41:15.249Z,56.53
2019-03-31T02:43:43.814Z,56.00
2019-03-31T02:46:13.988Z,57.70
2019-03-31T02:48:42.619Z,61.07
2019-03-31T02:51:11.327Z,62.73
2019-03-31T02:53:39.975Z,58.70
2019-03-31T02:56:11.054Z,64.77
2019-03-31T02:58:43.682Z,64.77
2019-03-31T03:01:13.583Z,63.30
2019-03-31T03:03:43.021Z,65.60
2019-03-31T03:06:14.327Z,65.60
2019-03-31T03:08:46.402Z,68.70
2019-03-31T03:11:17.015Z,66.63
2019-03-31T03:13:49.707Z,67.63
2019-03-31T03:16:20.244Z,68.57
2019-03-31T03:18:50.302Z,66.77
2019-03-31T03:21:23.684Z,64.83
2019-03-31T03:23:55.342Z,66.17
2019-03-31T03:26:25.610Z,66.50
2019-03-31T03:28:54.150Z,67.65
2019-03-31T03:31:23.326Z,63.37
2019-03-31T03:33:51.906Z,65.73
2019-03-31T03:36:21.973Z,65.77
2019-03-31T03:38:50.512Z,69.30
2019-03-31T03:41:20.621Z,67.27
2019-03-31T03:43:55.819Z,67.30
2019-03-31T03:46:20.192Z,67.27
2019-03-31T03:48:49.263Z,69.53
2019-03-31T03:51:17.758Z,67.53
2019-03-31T03:53:46.351Z,66.70
2019-03-31T03:56:20.573Z,65.03
2019-03-31T03:58:49.055Z,67.92
2019-03-31T04:01:19.500Z,66.73
2019-03-31T04:03:50.902Z,66.57
2019-03-31T04:06:26.307Z,61.68
2019-03-31T04:08:54.938Z,65.83
2019-03-31T04:11:24.438Z,65.70
2019-03-31T04:13:53.391Z,64.12
2019-03-31T04:16:23.554Z,64.80
2019-03-31T04:18:52.113Z,64.17
2019-03-31T04:21:20.840Z,66.90
2019-03-31T04:23:49.317Z,67.43
2019-03-31T04:26:19.279Z,66.30
2019-03-31T04:28:47.830Z,67.47
2019-03-31T04:31:16.667Z,64.10
2019-03-31T04:33:51.282Z,61.73
2019-03-31T04:36:15.471Z,64.87
2019-03-31T04:38:47.273Z,65.00
2019-03-31T04:41:15.217Z,64.07
2019-03-31T04:43:44.883Z,63.93
2019-03-31T04:46:13.361Z,65.90
2019-03-31T04:48:47.055Z,61.70
2019-03-31T04:51:15.200Z,61.10
2019-03-31T04:53:43.730Z,58.70
2019-03-31T04:56:12.237Z,57.87
2019-03-31T04:58:43.219Z,54.83
2019-03-31T05:01:11.763Z,54.60
2019-03-31T05:03:40.334Z,51.20
2019-03-31T05:06:08.874Z,50.20
2019-03-31T05:08:38.396Z,48.10
2019-03-31T05:11:08.194Z,47.33
2019-03-31T05:13:36.734Z,47.07
2019-03-31T05:16:07.516Z,43.17
2019-03-31T05:18:36.116Z,40.97
2019-03-31T05:21:07.790Z,40.30
2019-03-31T05:23:36.472Z,36.00
2019-03-31T05:26:05.344Z,37.93
2019-03-31T05:28:33.979Z,37.13
2019-03-31T05:31:06.000Z,37.03
2019-03-31T05:33:34.338Z,35.47
2019-03-31T05:36:02.876Z,35.53
2019-03-31T05:38:37.460Z,37.93
2019-03-31T05:41:05.956Z,39.93
2019-03-31T05:43:38.331Z,37.80
2019-03-31T05:46:15.443Z,39.80
2019-03-31T05:48:43.953Z,40.70
2019-03-31T05:51:13.939Z,43.70
2019-03-31T05:53:45.365Z,43.20
2019-03-31T05:56:16.615Z,43.50
2019-03-31T05:58:47.791Z,44.67
2019-03-31T06:01:16.255Z,40.78
2019-03-31T06:03:45.971Z,40.23
2019-03-31T06:06:14.436Z,40.47
2019-03-31T06:08:44.439Z,37.40
2019-03-31T06:11:12.911Z,40.67
2019-03-31T06:13:41.609Z,40.20
2019-03-31T06:16:10.237Z,38.60
2019-03-31T06:18:40.083Z,37.23
2019-03-31T06:21:08.672Z,37.27
2019-03-31T06:23:39.729Z,38.10
2019-03-31T06:26:08.354Z,39.33
2019-03-31T06:28:38.397Z,39.20
2019-03-31T06:31:07.189Z,38.33
2019-03-31T06:33:36.886Z,38.10
2019-03-31T06:36:05.447Z,42.27
2019-03-31T06:38:35.401Z,42.53
2019-03-31T06:41:03.929Z,44.63
2019-03-31T06:43:33.499Z,43.70
2019-03-31T06:46:02.025Z,42.50
2019-03-31T06:48:30.547Z,42.83
2019-03-31T06:50:59.085Z,44.57
2019-03-31T06:53:28.819Z,43.10
2019-03-31T06:55:58.869Z,41.00
2019-03-31T06:58:30.295Z,40.70
2019-03-31T07:00:58.909Z,42.43
2019-03-31T07:03:27.561Z,42.87
2019-03-31T07:05:56.167Z,41.18
2019-03-31T07:08:26.055Z,39.50
2019-03-31T07:10:54.586Z,39.00
2019-03-31T07:13:24.223Z,39.23
2019-03-31T07:15:52.691Z,41.27
2019-03-31T07:18:22.259Z,37.47
2019-03-31T07:20:51.228Z,37.10
2019-03-31T07:23:20.835Z,37.03
2019-03-31T07:25:49.429Z,34.53
2019-03-31T07:28:19.469Z,36.53
2019-03-31T07:30:50.800Z,36.73
2019-03-31T07:33:21.759Z,35.67
2019-03-31T07:35:51.476Z,35.13
2019-03-31T07:38:21.567Z,37.03
2019-03-31T07:40:50.404Z,35.98
2019-03-31T07:43:20.191Z,33.60
2019-03-31T07:45:48.786Z,33.23
2019-03-31T07:48:17.313Z,33.42
2019-03-31T07:50:45.872Z,33.33
2019-03-31T07:53:18.925Z,32.05
2019-03-31T07:55:47.378Z,30.88
2019-03-31T07:58:16.881Z,30.80
2019-03-31T08:00:45.448Z,27.37
2019-03-31T08:03:13.916Z,26.20
2019-03-31T08:05:42.412Z,23.17
2019-03-31T08:08:10.916Z,23.67
2019-03-31T08:10:39.398Z,22.20
2019-03-31T08:13:11.447Z,22.00
2019-03-31T08:15:39.920Z,21.30
2019-03-31T08:18:08.408Z,19.27
2019-03-31T08:20:36.897Z,19.20
2019-03-31T08:23:07.762Z,18.57
2019-03-31T08:25:36.219Z,17.40
2019-03-31T08:28:04.690Z,18.60
2019-03-31T08:30:33.260Z,18.60
2019-03-31T08:33:01.730Z,17.62
2019-03-31T08:35:30.199Z,16.53
2019-03-31T08:37:59.917Z,16.53
2019-03-31T08:40:29.297Z,16.00
2019-03-31T08:42:57.757Z,16.13
2019-03-31T08:45:30.369Z,15.90
2019-03-31T08:47:57.992Z,15.00
2019-03-31T08:50:26.454Z,14.77
2019-03-31T08:52:55.099Z,15.13
2019-03-31T08:55:24.778Z,14.40
2019-03-31T08:57:53.243Z,14.47
2019-03-31T09:00:32.031Z,14.43
2019-03-31T09:03:00.781Z,16.03
2019-03-31T09:05:30.800Z,12.88
2019-03-31T09:07:59.318Z,14.15
2019-03-31T09:10:29.342Z,14.00
2019-03-31T09:12:57.936Z,12.27
2019-03-31T09:15:28.100Z,12.10
2019-03-31T09:17:56.569Z,12.93
2019-03-31T09:20:29.345Z,12.13
2019-03-31T09:23:00.255Z,13.58
2019-03-31T09:25:28.783Z,12.00
2019-03-31T09:27:58.794Z,12.77
2019-03-31T09:30:27.304Z,13.00
2019-03-31T09:32:58.622Z,12.93
2019-03-31T09:35:27.234Z,12.70
2019-03-31T09:37:57.772Z,12.77
2019-03-31T09:40:26.263Z,12.17
2019-03-31T09:43:00.382Z,12.07
2019-03-31T09:45:28.971Z,11.53
2019-03-31T09:47:58.310Z,11.90
2019-03-31T09:50:28.973Z,11.03
2019-03-31T09:52:57.811Z,11.63
2019-03-31T09:55:30.873Z,11.67
2019-03-31T09:58:00.889Z,11.27
2019-03-31T10:00:45.761Z,10.23
2019-03-31T10:03:14.433Z,11.40
2019-03-31T10:05:43.323Z,11.13
2019-03-31T10:08:14.768Z,10.80
2019-03-31T10:10:46.733Z,10.33
2019-03-31T10:13:15.219Z,10.55
2019-03-31T10:15:45.254Z,9.90
2019-03-31T10:18:18.021Z,9.43
2019-03-31T10:20:47.059Z,10.63
2019-03-31T10:23:17.869Z,11.20
2019-03-31T10:25:48.323Z,10.90
2019-03-31T10:28:18.752Z,10.53
2019-03-31T10:30:47.253Z,10.63
2019-03-31T10:33:18.548Z,12.47
2019-03-31T10:35:47.180Z,12.53
2019-03-31T10:38:15.672Z,11.90
2019-03-31T10:40:44.133Z,12.73
2019-03-31T10:43:13.629Z,14.57
2019-03-31T10:45:42.160Z,12.67
2019-03-31T10:48:21.009Z,13.00
2019-03-31T10:50:46.264Z,12.95
2019-03-31T10:53:23.814Z,13.97
2019-03-31T10:55:55.375Z,13.73
2019-03-31T10:58:23.873Z,14.00
2019-03-31T11:00:52.329Z,13.23
2019-03-31T11:03:20.803Z,12.93
2019-03-31T11:05:49.368Z,12.83
2019-03-31T11:08:20.090Z,14.10
2019-03-31T11:10:50.756Z,14.33
2019-03-31T11:13:23.700Z,15.17
2019-03-31T11:15:52.315Z,13.73
2019-03-31T11:18:22.323Z,14.20
2019-03-31T11:20:55.314Z,13.93
2019-03-31T11:23:27.594Z,13.80
2019-03-31T11:25:56.170Z,14.40
2019-03-31T11:28:26.666Z,13.05
2019-03-31T11:30:56.257Z,14.43
2019-03-31T11:33:27.715Z,13.80
2019-03-31T11:35:56.670Z,11.70
2019-03-31T11:38:25.262Z,11.13
2019-03-31T11:40:53.778Z,11.63
2019-03-31T11:43:23.819Z,11.37
2019-03-31T11:45:52.421Z,11.95
2019-03-31T11:48:22.501Z,10.57
2019-03-31T11:50:51.066Z,10.77
2019-03-31T11:53:19.653Z,10.30
2019-03-31T11:55:49.815Z,10.15
2019-03-31T11:58:22.445Z,10.58
2019-03-31T12:00:52.620Z,10.43
2019-03-31T12:03:21.298Z,11.00
2019-03-31T12:05:51.331Z,11.10
2019-03-31T12:08:19.973Z,10.33
2019-03-31T12:10:52.778Z,10.85
2019-03-31T12:13:21.381Z,10.55
2019-03-31T12:15:50.786Z,10.50
2019-03-31T12:18:19.248Z,10.93
2019-03-31T12:20:48.306Z,9.97
2019-03-31T12:23:19.401Z,10.23
2019-03-31T12:25:49.957Z,9.53
2019-03-31T12:28:19.007Z,9.00
2019-03-31T12:30:47.565Z,8.30
2019-03-31T12:33:16.371Z,8.10
2019-03-31T12:35:47.347Z,8.60
2019-03-31T12:38:17.759Z,8.40
2019-03-31T12:40:46.303Z,8.00
2019-03-31T12:43:25.295Z,8.25
2019-03-31T12:45:53.765Z,7.57
2019-03-31T12:48:22.317Z,7.47
2019-03-31T12:50:53.505Z,6.90
2019-03-31T12:53:24.688Z,7.20
2019-03-31T12:56:00.468Z,7.17
2019-03-31T12:58:28.217Z,7.17
2019-03-31T13:00:57.701Z,7.13
2019-03-31T13:03:26.325Z,7.27
2019-03-31T13:05:54.825Z,6.70
2019-03-31T13:08:25.247Z,7.57
2019-03-31T13:10:53.649Z,8.53
2019-03-31T13:13:22.710Z,7.77
2019-03-31T13:15:52.748Z,8.30
2019-03-31T13:18:27.921Z,7.72
2019-03-31T13:20:55.697Z,7.00
2019-03-31T13:23:29.298Z,7.60
2019-03-31T13:25:57.764Z,7.57
2019-03-31T13:28:27.178Z,7.97
2019-03-31T13:31:00.381Z,7.63
2019-03-31T13:33:31.484Z,7.50
2019-03-31T13:36:00.126Z,6.73
2019-03-31T13:38:28.614Z,6.87
2019-03-31T13:40:57.135Z,6.45
2019-03-31T13:43:28.601Z,6.17
2019-03-31T13:46:00.469Z,6.87
2019-03-31T13:48:29.084Z,5.73
2019-03-31T13:51:00.410Z,5.50
2019-03-31T13:53:28.867Z,5.70
2019-03-31T13:55:57.381Z,5.22
2019-03-31T13:58:26.248Z,5.60
2019-03-31T14:00:57.624Z,5.10
2019-03-31T14:03:26.098Z,5.10
2019-03-31T14:05:54.663Z,5.27
2019-03-31T14:08:26.007Z,3.80
2019-03-31T14:10:53.649Z,4.50
2019-03-31T14:13:22.303Z,4.13
2019-03-31T14:15:50.916Z,4.10
2019-03-31T14:18:19.482Z,4.23
2019-03-31T14:20:48.093Z,4.47
2019-03-31T14:23:16.706Z,4.60
2019-03-31T14:25:45.182Z,4.00
2019-03-31T14:28:13.769Z,4.17
2019-03-31T14:30:43.292Z,4.53
2019-03-31T14:33:11.837Z,3.83
2019-03-31T14:35:44.024Z,4.07
2019-03-31T14:38:12.613Z,3.97
2019-03-31T14:40:41.490Z,4.30
2019-03-31T14:43:10.571Z,3.70
2019-03-31T14:45:39.550Z,3.53
2019-03-31T14:48:08.209Z,3.70
2019-03-31T14:50:37.737Z,3.67
2019-03-31T14:53:12.382Z,3.83
2019-03-31T14:55:40.906Z,3.57
2019-03-31T14:58:09.631Z,3.27
2019-03-31T15:00:39.457Z,4.03
2019-03-31T15:03:08.037Z,5.63
2019-03-31T15:05:38.148Z,11.57
2019-03-31T15:08:06.746Z,4.13
2019-03-31T15:10:35.285Z,3.87
2019-03-31T15:13:05.288Z,3.93
2019-03-31T15:15:35.285Z,4.40
2019-03-31T15:18:03.822Z,3.60
2019-03-31T15:20:32.477Z,3.53
2019-03-31T15:23:01.912Z,2.93
2019-03-31T15:25:30.375Z,3.10
2019-03-31T15:28:03.389Z,3.40
2019-03-31T15:30:39.400Z,2.80
2019-03-31T15:33:07.875Z,3.13
2019-03-31T15:35:38.674Z,2.72
2019-03-31T15:38:08.185Z,2.83
2019-03-31T15:40:36.640Z,2.87
2019-03-31T15:43:08.113Z,2.80
2019-03-31T15:45:40.002Z,3.33
2019-03-31T15:48:08.521Z,3.47
2019-03-31T15:50:37.020Z,3.13
2019-03-31T15:53:05.614Z,2.75
2019-03-31T15:55:34.208Z,2.80
2019-03-31T15:58:06.682Z,3.33
2019-03-31T16:00:35.157Z,2.80
2019-03-31T16:03:07.668Z,2.93
2019-03-31T16:05:36.153Z,3.17
2019-03-31T16:08:07.216Z,2.57
2019-03-31T16:10:38.643Z,3.47
2019-03-31T16:13:08.449Z,2.80
2019-03-31T16:15:39.701Z,2.93
2019-03-31T16:18:09.895Z,2.30
2019-03-31T16:20:43.998Z,2.83
2019-03-31T16:23:13.993Z,2.67
2019-03-31T16:25:45.678Z,3.00
2019-03-31T16:28:14.198Z,2.75
2019-03-31T16:30:45.003Z,2.53
2019-03-31T16:33:13.468Z,2.03
2019-03-31T16:35:45.208Z,2.40
2019-03-31T16:38:13.663Z,2.63
2019-03-31T16:40:43.673Z,2.53
2019-03-31T16:43:12.246Z,2.60
2019-03-31T16:45:40.742Z,2.40
2019-03-31T16:48:09.341Z,2.70
2019-03-31T16:50:39.450Z,2.93
2019-03-31T16:53:12.708Z,3.60
2019-03-31T16:55:41.254Z,3.10
2019-03-31T16:58:09.832Z,2.70
2019-03-31T17:00:39.908Z,2.60
2019-03-31T17:03:09.468Z,2.27
2019-03-31T17:05:41.069Z,2.50
2019-03-31T17:08:11.125Z,2.70
2019-03-31T17:10:39.576Z,2.67
2019-03-31T17:13:15.933Z,2.75
2019-03-31T17:15:45.562Z,2.00
2019-03-31T17:18:14.025Z,2.10
2019-03-31T17:20:42.535Z,2.60
2019-03-31T17:23:10.999Z,2.20
2019-03-31T17:25:39.524Z,2.77
2019-03-31T17:28:10.105Z,2.52
2019-03-31T17:30:40.641Z,2.50
2019-03-31T17:33:11.159Z,3.20
2019-03-31T17:35:44.408Z,2.40
2019-03-31T17:38:13.856Z,2.27
2019-03-31T17:40:42.617Z,2.25
2019-03-31T17:43:14.519Z,2.23
2019-03-31T17:45:43.373Z,2.10
2019-03-31T17:48:11.933Z,2.47
2019-03-31T17:50:40.453Z,2.33
2019-03-31T17:53:09.902Z,2.70
2019-03-31T17:55:38.379Z,2.13
2019-03-31T17:58:06.863Z,2.27
2019-03-31T18:00:35.341Z,2.00
2019-03-31T18:03:03.937Z,2.40
2019-03-31T18:05:34.076Z,2.37
2019-03-31T18:08:02.793Z,3.03
2019-03-31T18:10:32.682Z,2.53
2019-03-31T18:13:01.480Z,2.25
2019-03-31T18:15:30.099Z,2.50
2019-03-31T18:18:02.602Z,1.90
2019-03-31T18:20:29.820Z,2.10
2019-03-31T18:23:01.279Z,2.30
2019-03-31T18:25:29.804Z,2.97
2019-03-31T18:27:58.388Z,2.85
2019-03-31T18:30:26.856Z,2.53
2019-03-31T18:32:57.652Z,2.42
2019-03-31T18:35:26.793Z,2.37
2019-03-31T18:37:55.470Z,2.27
2019-03-31T18:40:34.359Z,2.10
2019-03-31T18:42:56.341Z,3.10
2019-03-31T18:45:26.391Z,2.10
2019-03-31T18:47:54.902Z,2.03
2019-03-31T18:50:23.496Z,2.20
2019-03-31T18:52:52.177Z,2.20
2019-03-31T18:55:42.602Z,2.80
2019-03-31T18:58:12.793Z,2.53
2019-03-31T19:00:59.392Z,3.10
2019-03-31T19:03:31.983Z,2.10
2019-03-31T19:06:04.958Z,2.23
2019-03-31T19:08:47.099Z,2.10
2019-03-31T19:11:19.785Z,3.10
2019-03-31T19:13:55.620Z,2.57
2019-03-31T19:16:21.769Z,2.40
2019-03-31T19:18:58.464Z,2.00
2019-03-31T19:21:36.581Z,2.57
2019-03-31T19:24:28.760Z,2.77
2019-03-31T19:27:14.906Z,2.08
2019-03-31T19:30:05.106Z,2.60
2019-03-31T19:32:36.243Z,2.30
2019-03-31T19:35:14.092Z,1.87
2019-03-31T19:37:56.516Z,2.87
2019-03-31T19:40:29.376Z,2.17
2019-03-31T19:43:18.910Z,1.97
2019-03-31T19:45:51.996Z,2.27
2019-03-31T19:48:22.239Z,2.53
2019-03-31T19:51:02.272Z,2.27
2019-03-31T19:53:38.644Z,2.93
2019-03-31T19:56:17.898Z,2.73
2019-03-31T19:59:00.351Z,2.87
2019-03-31T20:01:35.620Z,2.97
2019-03-31T20:07:21.025Z,2.87
2019-03-31T20:10:02.803Z,2.27
2019-03-31T20:12:32.956Z,2.27
2019-03-31T20:15:19.175Z,2.03
2019-03-31T20:17:49.302Z,2.63
2019-03-31T20:20:21.820Z,2.83
2019-03-31T20:23:01.992Z,2.37
2019-03-31T20:25:38.341Z,3.25
2019-03-31T20:28:08.835Z,2.37
2019-03-31T20:30:39.030Z,2.87
2019-03-31T20:33:09.390Z,2.20
2019-03-31T20:35:55.986Z,2.70
2019-03-31T20:38:43.363Z,2.73
2019-03-31T20:41:14.527Z,2.95
2019-03-31T20:43:44.635Z,2.77
2019-03-31T20:46:14.648Z,2.27
2019-03-31T20:48:43.132Z,2.50
2019-03-31T20:51:12.535Z,2.70
2019-03-31T20:53:43.273Z,3.07
2019-03-31T20:56:11.839Z,2.70
2019-03-31T20:58:41.839Z,2.15
2019-03-31T21:01:10.381Z,2.42
2019-03-31T21:03:40.109Z,2.60
2019-03-31T21:06:08.569Z,2.20
2019-03-31T21:08:38.641Z,2.73
2019-03-31T21:11:10.211Z,2.75
2019-03-31T21:13:41.152Z,2.33
2019-03-31T21:16:09.619Z,2.20
2019-03-31T21:18:38.377Z,2.57
2019-03-31T21:21:06.901Z,2.60
2019-03-31T21:23:36.811Z,3.37
2019-03-31T21:26:07.362Z,2.40
2019-03-31T21:28:35.856Z,2.30
2019-03-31T21:31:06.977Z,3.10
2019-03-31T21:33:36.950Z,2.37
2019-03-31T21:36:05.412Z,2.50
2019-03-31T21:38:33.946Z,2.60
2019-03-31T21:41:02.432Z,2.50
2019-03-31T21:43:30.908Z,2.93
2019-03-31T21:46:00.888Z,2.83
2019-03-31T21:48:29.572Z,2.67
2019-03-31T21:50:59.557Z,2.63
2019-03-31T21:53:29.448Z,2.50
2019-03-31T21:55:57.918Z,2.00
2019-03-31T21:58:27.642Z,2.20
2019-03-31T22:00:57.988Z,2.63
2019-03-31T22:03:26.633Z,2.13
2019-03-31T22:05:56.618Z,2.40
2019-03-31T22:08:25.105Z,2.20
2019-03-31T22:10:53.623Z,2.70
2019-03-31T22:13:22.204Z,2.72
2019-03-31T22:15:50.922Z,2.77
2019-03-31T22:18:19.373Z,2.83
2019-03-31T22:20:47.853Z,2.45
2019-03-31T22:23:16.669Z,2.67
2019-03-31T22:25:45.138Z,2.23
2019-03-31T22:28:13.603Z,2.43
2019-03-31T22:33:29.465Z,2.50
2019-03-31T22:36:15.684Z,2.37
2019-03-31T22:38:45.790Z,2.00
2019-03-31T22:41:14.386Z,2.27
2019-03-31T22:43:44.454Z,1.70
2019-03-31T22:46:12.947Z,2.72
2019-03-31T22:48:45.034Z,2.63
2019-03-31T22:51:15.844Z,2.13
2019-03-31T22:53:44.511Z,2.30
2019-03-31T22:56:14.507Z,1.90
2019-03-31T22:58:42.996Z,2.63
2019-03-31T23:01:15.559Z,2.05
2019-03-31T23:03:44.137Z,2.52
2019-03-31T23:06:12.612Z,2.60
2019-03-31T23:08:42.360Z,2.17
2019-03-31T23:11:12.816Z,1.90
2019-03-31T23:13:41.426Z,1.90
2019-03-31T23:16:12.838Z,1.87
2019-03-31T23:18:41.297Z,2.47
2019-03-31T23:21:09.764Z,2.62
2019-03-31T23:23:40.901Z,2.50
2019-03-31T23:26:09.430Z,1.77
2019-03-31T23:28:39.522Z,2.00
2019-03-31T23:31:08.171Z,2.20
2019-03-31T23:33:40.909Z,1.57
2019-03-31T23:36:11.933Z,2.12
2019-03-31T23:38:40.391Z,2.30
2019-03-31T23:41:09.039Z,2.10
2019-03-31T23:43:39.794Z,2.73
2019-03-31T23:46:09.793Z,2.00
2019-03-31T23:48:38.257Z,2.17
2019-03-31T23:51:11.269Z,2.13
2019-03-31T23:53:39.833Z,2.27
2019-03-31T23:56:08.305Z,2.33
2019-03-31T23:58:36.795Z,2.07
